Terminal Aerodrome Forecast
Issued by NWS

Home | Current Version | Previous Version | Text Only | Print | Product List | Glossary Off
Versions: 1 2 3 4 5 6 7 8 9 10 11 12 13 14 15 16 17 18

242
FTUS43 KMPX 032341
TAFAXN
TAF
KAXN 032341Z 0400/0424 29007KT P6SM BKN080
     FM040300 23006KT P6SM OVC050
     FM040900 24005KT 4SM -SN BR OVC015
      TEMPO 0411/0415 1SM -SN BR OVC008
     FM041500 32009KT P6SM OVC012
     FM042100 31008KT P6SM SCT020=

USA.gov is the U.S. government's official web portal to all federal, state and local government web resources and services.